Time;durP1;ratioP1;P1;durP2;ratioP2;P2;SDS_P1;SDS_P2;PMS_P1;PMS_P2;Temp;Humidity;BMP_temperature;BMP_pressure;BME280_temperature;BME280_humidity;BME280_pressure;Samples;Min_cycle;Max_cycle;Signal;HPM_P1;HPM_P2
2022/08/13 00:02:00;;;;;;;;;11.00;11.00;;;;;25.77;32.75;101077.91;5092789;27;50304;-72
2022/08/13 00:04:26;;;;;;;;;14.00;12.25;;;;;25.86;32.65;101099.94;5092730;27;49937;-71
2022/08/13 00:07:04;;;;;;;;;15.00;14.75;;;;;25.81;32.79;101101.94;5093018;27;49975;-71
2022/08/13 00:09:30;;;;;;;;;13.50;13.50;;;;;25.80;32.60;101094.81;5092667;27;51330;-72
2022/08/13 00:14:41;;;;;;;;;14.00;13.00;;;;;25.66;32.91;101087.22;5092374;27;49720;-71
2022/08/13 00:17:12;;;;;;;;;14.00;11.75;;;;;25.73;32.59;101101.34;5092771;27;49899;-71
2022/08/13 00:19:40;;;;;;;;;15.25;13.25;;;;;25.68;33.24;101093.44;5092585;27;51416;-80
2022/08/13 00:22:05;;;;;;;;;15.50;11.50;;;;;25.56;32.82;101080.41;5092619;27;49747;-72
2022/08/13 00:24:31;;;;;;;;;16.25;13.50;;;;;25.51;33.04;101078.84;5092671;27;49664;-76
2022/08/13 00:26:59;;;;;;;;;9.50;9.50;;;;;25.62;33.30;101096.34;5092973;27;49756;-78
2022/08/13 00:29:25;;;;;;;;;12.50;12.50;;;;;25.63;33.05;101095.41;5092783;27;49993;-86
2022/08/13 00:31:51;;;;;;;;;16.50;13.50;;;;;25.53;33.12;101080.53;5092817;27;49967;-72
2022/08/13 00:34:17;;;;;;;;;13.75;12.75;;;;;25.52;33.45;101089.53;5092250;27;49644;-72
2022/08/13 00:36:43;;;;;;;;;14.00;13.00;;;;;25.57;33.19;101092.91;5092434;27;49642;-72
2022/08/13 00:39:09;;;;;;;;;12.00;12.00;;;;;25.42;33.34;101077.34;5091975;27;49719;-72
2022/08/13 00:41:39;;;;;;;;;13.25;13.25;;;;;25.52;33.12;101094.03;5092076;27;49888;-72
2022/08/13 00:44:07;;;;;;;;;14.75;11.25;;;;;25.48;32.81;101090.59;5092189;27;50003;-71
2022/08/13 00:46:33;;;;;;;;;10.75;10.75;;;;;25.44;32.99;101091.63;5092144;27;49741;-71
2022/08/13 00:49:01;;;;;;;;;11.75;10.00;;;;;25.42;32.71;101101.53;5092043;27;50768;-72
2022/08/13 00:51:27;;;;;;;;;9.50;9.50;;;;;25.40;33.01;101095.34;5090328;27;49640;-72
2022/08/13 00:53:54;;;;;;;;;12.75;11.25;;;;;25.28;33.17;101083.19;5091903;27;49735;-71
2022/08/13 00:56:22;;;;;;;;;15.75;15.00;;;;;25.35;32.93;101094.63;5092110;27;49629;-72
2022/08/13 00:58:49;;;;;;;;;11.00;11.00;;;;;25.36;32.79;101107.13;5091641;27;50619;-71
2022/08/13 01:01:15;;;;;;;;;9.00;9.00;;;;;25.33;32.92;101105.44;5090250;27;49684;-70
2022/08/13 01:03:41;;;;;;;;;11.00;10.75;;;;;25.27;32.86;101096.69;5073498;27;50145;-71
2022/08/13 01:06:08;;;;;;;;;11.75;9.75;;;;;25.28;32.54;101093.94;5092072;27;49665;-71
2022/08/13 01:08:40;;;;;;;;;9.50;9.50;;;;;25.14;32.52;101076.56;5091694;27;50559;-71
2022/08/13 01:11:09;;;;;;;;;10.75;10.75;;;;;25.23;32.45;101098.63;5091858;27;49787;-71
2022/08/13 01:13:37;;;;;;;;;10.00;10.00;;;;;25.20;32.81;101098.75;5091463;27;51843;-71
2022/08/13 01:16:12;;;;;;;;;9.50;9.50;;;;;25.18;32.70;101099.69;5091609;27;50126;-70
2022/08/13 01:18:42;;;;;;;;;8.00;7.75;;;;;25.17;32.55;101103.31;5091471;27;49559;-71
2022/08/13 01:21:13;;;;;;;;;11.25;10.75;;;;;25.12;32.88;101098.13;5091699;27;49705;-71
2022/08/13 01:23:39;;;;;;;;;8.25;8.25;;;;;25.11;32.83;101099.94;5090114;27;49959;-71
2022/08/13 01:26:04;;;;;;;;;11.75;8.75;;;;;25.00;32.39;101077.91;5091105;27;49994;-70
2022/08/13 01:28:30;;;;;;;;;7.50;7.50;;;;;25.09;32.76;101096.41;5091297;27;51265;-71
2022/08/13 01:30:59;;;;;;;;;11.00;11.00;;;;;25.06;32.73;101099.19;5091155;27;49770;-70
2022/08/13 01:33:24;;;;;;;;;8.50;7.50;;;;;25.06;32.63;101099.19;5091233;27;49839;-70
2022/08/13 01:35:52;;;;;;;;;9.00;8.75;;;;;25.00;32.79;101102.06;5091442;27;50153;-70
2022/08/13 01:38:19;;;;;;;;;12.50;11.25;;;;;24.88;32.86;101089.03;5091183;27;49752;-71
2022/08/13 01:40:47;;;;;;;;;7.00;7.00;;;;;24.92;32.75;101104.13;5091270;27;49936;-71
2022/08/13 01:43:13;;;;;;;;;10.00;10.00;;;;;24.89;32.79;101098.84;5089728;27;49675;-71
2022/08/13 01:45:39;;;;;;;;;9.75;8.75;;;;;24.87;32.98;101111.44;5091409;27;49827;-70
2022/08/13 01:50:49;;;;;;;;;14.00;11.25;;;;;24.78;32.66;101111.75;5090888;27;50218;-71
2022/08/13 01:53:16;;;;;;;;;9.00;9.00;;;;;24.72;32.83;101102.09;5090849;27;49943;-71
2022/08/13 01:55:48;;;;;;;;;10.50;10.50;;;;;24.75;32.97;101104.66;5091230;27;49834;-71
2022/08/13 01:58:22;;;;;;;;;13.50;11.00;;;;;24.71;33.16;101105.72;5090994;27;50486;-70
2022/08/13 02:00:52;;;;;;;;;17.00;15.00;;;;;24.70;33.20;101109.28;5088928;27;49802;-70
2022/08/13 02:03:19;;;;;;;;;12.75;12.00;;;;;24.69;33.09;101103.97;5091235;27;49664;-71
2022/08/13 02:05:47;;;;;;;;;16.75;14.50;;;;;24.65;33.09;101105.91;5090946;27;50028;-71
2022/08/13 02:08:13;;;;;;;;;10.50;10.50;;;;;24.62;33.13;101111.38;5090737;27;49855;-71
2022/08/13 02:10:42;;;;;;;;;13.00;12.75;;;;;24.59;33.59;101106.06;5090731;27;49596;-72
2022/08/13 02:13:14;;;;;;;;;12.50;11.50;;;;;24.54;33.69;101110.72;5090775;27;49616;-71
2022/08/13 02:15:42;;;;;;;;;14.50;12.00;;;;;24.52;33.28;101105.41;5072867;27;49739;-72
2022/08/13 02:18:17;;;;;;;;;11.75;10.25;;;;;24.50;33.56;101107.25;5090588;27;50638;-71
2022/08/13 02:20:44;;;;;;;;;14.50;11.00;;;;;24.49;33.65;101115.34;5089147;27;49745;-71
2022/08/13 02:23:16;;;;;;;;;10.50;8.50;;;;;24.45;33.67;101111.91;5090772;27;49699;-70
2022/08/13 02:25:45;;;;;;;;;12.00;12.00;;;;;24.41;33.77;101112.91;5090791;27;49984;-70
2022/08/13 02:28:11;;;;;;;;;12.00;10.75;;;;;24.34;33.80;101111.34;5090421;27;50374;-70
2022/08/13 02:30:36;;;;;;;;;13.50;13.00;;;;;24.29;33.57;101110.56;5090225;27;49635;-71
2022/08/13 02:33:05;;;;;;;;;9.25;9.00;;;;;24.27;33.47;101107.06;5090340;27;49802;-71
2022/08/13 02:35:31;;;;;;;;;13.50;10.00;;;;;24.19;33.94;101099.22;5090824;27;50357;-70
2022/08/13 02:37:56;;;;;;;;;11.00;11.00;;;;;24.27;33.84;101115.09;5090869;27;50921;-70
2022/08/13 02:43:05;;;;;;;;;14.75;10.75;;;;;24.14;34.42;101100.31;5094165;27;49776;-69
2022/08/13 02:45:31;;;;;;;;;8.75;8.75;;;;;24.07;34.40;101090.69;5093845;27;49986;-69
2022/08/13 02:47:57;;;;;;;;;13.50;12.00;;;;;24.03;34.59;101105.09;5093836;27;50499;-69
2022/08/13 02:50:24;;;;;;;;;11.75;11.75;;;;;24.02;34.44;101109.56;5094109;27;49678;-70
2022/08/13 02:52:51;;;;;;;;;11.25;11.25;;;;;23.99;34.94;101115.03;5093812;27;49706;-69
2022/08/13 02:55:21;;;;;;;;;11.25;8.25;;;;;23.89;35.20;101103.69;5094302;27;49758;-70
2022/08/13 02:57:47;;;;;;;;;12.00;11.25;;;;;23.89;35.18;101108.19;5093663;27;49826;-69
2022/08/13 03:00:14;;;;;;;;;13.75;12.25;;;;;23.84;34.99;101102.09;5093717;27;49655;-71
2022/08/13 03:02:44;;;;;;;;;13.50;13.00;;;;;23.76;35.22;101099.63;5093956;27;50013;-71
2022/08/13 03:05:13;;;;;;;;;14.50;10.00;;;;;23.81;35.24;101110.19;5093881;27;49743;-70
2022/08/13 03:07:43;;;;;;;;;15.25;12.50;;;;;23.77;35.17;101117.47;5093543;27;49672;-70
2022/08/13 03:10:11;;;;;;;;;15.75;11.00;;;;;23.74;35.23;101114.88;5093782;27;49822;-70
2022/08/13 03:12:40;;;;;;;;;8.50;8.50;;;;;23.69;35.37;101106.06;5093758;27;49790;-70
2022/08/13 03:15:11;;;;;;;;;9.00;7.50;;;;;23.60;35.44;101103.63;5093767;27;49947;-70
2022/08/13 03:17:38;;;;;;;;;12.25;11.25;;;;;23.62;35.64;101107.16;5086982;27;50498;-71
2022/08/13 03:20:16;;;;;;;;;9.75;8.75;;;;;23.60;35.44;101109.88;5093524;27;49612;-70
2022/08/13 03:22:55;;;;;;;;;9.00;9.00;;;;;23.55;35.54;101094.84;5093498;27;49937;-70
2022/08/13 03:25:25;;;;;;;;;11.00;10.50;;;;;23.51;35.79;101094.00;5093626;27;49757;-70
2022/08/13 03:27:52;;;;;;;;;10.75;10.50;;;;;23.49;35.88;101098.53;5093523;27;50869;-71
2022/08/13 03:30:21;;;;;;;;;6.75;6.75;;;;;23.46;35.93;101103.13;5093275;27;49751;-70
2022/08/13 03:32:47;;;;;;;;;10.25;10.00;;;;;23.43;35.94;101098.69;5093315;27;49949;-71
2022/08/13 03:35:19;;;;;;;;;9.25;7.75;;;;;23.39;36.00;101097.03;5093484;27;49705;-70
2022/08/13 03:37:55;;;;;;;;;9.50;9.00;;;;;23.37;36.02;101107.81;5092946;27;51525;-71
2022/08/13 03:40:23;;;;;;;;;6.25;6.00;;;;;23.34;36.34;101107.84;5093244;27;49770;-71
2022/08/13 03:42:49;;;;;;;;;10.50;9.25;;;;;23.31;36.28;101104.41;5093174;27;49788;-69
2022/08/13 03:45:16;;;;;;;;;10.50;9.75;;;;;23.16;36.11;101094.06;5093248;27;49933;-71
2022/08/13 03:47:42;;;;;;;;;8.25;8.25;;;;;23.26;36.08;101108.97;5092473;27;49932;-70
2022/08/13 03:50:10;;;;;;;;;8.00;7.00;;;;;23.21;36.15;101106.44;5093051;27;49852;-71
2022/08/13 03:52:36;;;;;;;;;6.75;6.75;;;;;23.19;36.58;101105.59;5092891;27;49794;-71
2022/08/13 03:55:05;;;;;;;;;8.50;8.50;;;;;23.16;36.54;101111.00;5093038;27;49770;-71
2022/08/13 03:57:32;;;;;;;;;11.00;7.50;;;;;23.13;36.89;101106.63;5092670;27;49741;-71
2022/08/13 03:59:59;;;;;;;;;9.75;7.50;;;;;23.12;36.66;101109.34;5092694;27;49761;-71
2022/08/13 04:02:24;;;;;;;;;8.25;7.25;;;;;23.08;36.82;101116.59;5092986;27;50170;-70
2022/08/13 04:04:50;;;;;;;;;7.00;7.00;;;;;22.99;36.68;101094.53;5093233;27;49723;-70
2022/08/13 04:07:17;;;;;;;;;6.00;6.00;;;;;22.99;36.70;101094.53;5092848;27;49782;-73
2022/08/13 04:09:44;;;;;;;;;8.25;8.25;;;;;23.06;36.71;101107.69;5092777;27;49722;-72
2022/08/13 04:12:12;;;;;;;;;8.75;7.50;;;;;23.05;36.71;101105.06;5092805;27;49713;-72
2022/08/13 04:14:41;;;;;;;;;9.25;8.25;;;;;23.01;36.88;101104.25;5092492;27;50164;-71
2022/08/13 04:17:10;;;;;;;;;6.50;6.50;;;;;22.97;36.99;101099.91;5092397;27;49730;-72
2022/08/13 04:19:37;;;;;;;;;9.00;7.75;;;;;22.86;36.41;101085.88;5092645;27;49766;-71
2022/08/13 04:22:04;;;;;;;;;9.75;8.00;;;;;22.96;36.18;101105.28;5092732;27;49706;-71
2022/08/13 04:24:29;;;;;;;;;9.25;6.75;;;;;22.90;36.05;101087.59;5092826;27;49838;-71
2022/08/13 04:26:58;;;;;;;;;9.75;9.75;;;;;23.02;36.38;101108.69;5092350;27;49712;-70
2022/08/13 04:29:24;;;;;;;;;10.25;9.50;;;;;22.96;36.41;101099.94;5092188;27;49801;-72
2022/08/13 04:31:50;;;;;;;;;6.25;6.25;;;;;22.99;36.64;101102.56;5095034;27;49893;-72
2022/08/13 04:34:19;;;;;;;;;6.25;5.50;;;;;22.76;36.61;101068.28;5092269;27;49929;-74
2022/08/13 04:36:45;;;;;;;;;7.25;7.00;;;;;22.95;36.46;101108.88;5073814;27;51632;-73
2022/08/13 04:39:10;;;;;;;;;8.50;8.25;;;;;22.93;36.83;101100.00;5092258;27;54297;-73
2022/08/13 04:41:35;;;;;;;;;10.75;10.25;;;;;22.90;37.07;101103.66;5092463;27;49899;-77
2022/08/13 04:44:01;;;;;;;;;6.75;6.75;;;;;22.78;37.00;101094.09;5092412;27;49909;-72
2022/08/13 04:46:26;;;;;;;;;7.00;7.00;;;;;22.87;37.17;101119.78;5092104;27;50629;-71
2022/08/13 04:48:52;;;;;;;;;8.00;7.00;;;;;22.83;37.03;101105.56;5092244;27;49745;-71
2022/08/13 04:51:17;;;;;;;;;8.75;8.75;;;;;22.70;37.46;101098.75;5091824;27;49590;-72
2022/08/13 04:53:43;;;;;;;;;9.50;8.25;;;;;22.77;37.01;101108.38;5091508;27;59004;-69
2022/08/13 04:56:09;;;;;;;;;9.75;9.50;;;;;22.75;36.84;101110.22;5091657;27;53439;-72
2022/08/13 04:58:35;;;;;;;;;9.75;8.25;;;;;22.69;36.78;101096.13;5091585;27;49800;-69
2022/08/13 05:01:08;;;;;;;;;10.00;10.00;;;;;22.72;37.26;101104.06;5091048;27;49812;-70
2022/08/13 05:03:45;;;;;;;;;10.25;9.25;;;;;22.73;36.96;101101.34;5092106;27;49926;-70
2022/08/13 05:06:19;;;;;;;;;10.75;10.50;;;;;22.71;36.75;101100.50;5091742;27;50597;-71
2022/08/13 05:08:46;;;;;;;;;9.50;7.25;;;;;22.66;36.29;101085.47;5086065;27;49867;-72
2022/08/13 05:11:12;;;;;;;;;9.00;9.00;;;;;22.74;36.18;101099.53;5073150;27;49843;-71
2022/08/13 05:13:39;;;;;;;;;10.00;10.00;;;;;22.81;36.29;101107.41;5091565;27;49814;-71
2022/08/13 05:16:07;;;;;;;;;9.25;7.50;;;;;22.68;36.79;101083.63;5091873;27;49699;-71
2022/08/13 05:18:34;;;;;;;;;8.50;6.75;;;;;22.85;36.10;101119.81;5091840;27;49944;-71
2022/08/13 05:21:03;;;;;;;;;9.25;7.50;;;;;22.86;36.53;101109.97;5091832;27;49819;-70
2022/08/13 05:23:30;;;;;;;;;11.50;9.75;;;;;22.90;36.26;101116.16;5085455;27;49904;-72
2022/08/13 05:25:58;;;;;;;;;10.25;8.75;;;;;22.78;36.58;101095.91;5091208;27;50706;-72
2022/08/13 05:28:24;;;;;;;;;11.00;11.00;;;;;22.82;36.35;101111.84;5085055;27;49756;-72
2022/08/13 05:30:49;;;;;;;;;13.00;9.50;;;;;22.86;36.29;101112.66;5084663;27;49642;-72
2022/08/13 05:33:16;;;;;;;;;8.75;8.75;;;;;22.64;35.92;101085.50;5091418;27;50016;-71
2022/08/13 05:35:44;;;;;;;;;10.50;8.75;;;;;22.89;35.86;101128.66;5091396;27;50260;-70
2022/08/13 05:38:09;;;;;;;;;9.50;8.75;;;;;22.91;35.79;101116.13;5091462;27;49795;-71
2022/08/13 05:40:35;;;;;;;;;8.00;6.75;;;;;22.87;35.80;101109.06;5091472;27;49716;-71
2022/08/13 05:43:02;;;;;;;;;9.75;7.75;;;;;22.83;35.75;101104.69;5091528;27;49847;-69
2022/08/13 05:45:28;;;;;;;;;11.00;9.00;;;;;22.92;35.78;101117.88;5090719;27;50637;-71
2022/08/13 05:47:53;;;;;;;;;9.50;9.50;;;;;22.79;35.78;101087.81;5091176;27;49882;-71
2022/08/13 05:50:19;;;;;;;;;9.50;8.25;;;;;22.91;35.89;101107.22;5091067;27;49797;-70
2022/08/13 05:52:44;;;;;;;;;9.00;7.75;;;;;22.99;35.94;101119.50;5090976;27;49637;-72
2022/08/13 05:55:12;;;;;;;;;13.25;11.75;;;;;22.99;35.88;101113.25;5091103;27;50353;-71
2022/08/13 05:57:39;;;;;;;;;9.25;9.25;;;;;23.01;35.98;101123.00;5095821;27;49719;-79
2022/08/13 06:05:37;;;;;;;;;8.00;8.00;;;;;23.08;35.48;101118.38;5090893;27;49845;-72
2022/08/13 06:08:04;;;;;;;;;8.75;6.50;;;;;23.06;35.80;101121.06;5090922;27;49755;-69
2022/08/13 06:10:32;;;;;;;;;7.50;7.50;;;;;23.20;35.77;101133.25;5090816;27;49757;-70
2022/08/13 06:12:57;;;;;;;;;6.75;5.75;;;;;23.21;35.62;101125.19;5090887;27;49772;-69
2022/08/13 06:15:23;;;;;;;;;8.00;6.25;;;;;23.17;35.75;101123.50;5090639;27;50413;-70
2022/08/13 06:17:51;;;;;;;;;8.75;8.75;;;;;23.23;35.82;101125.13;5090782;27;49789;-69
2022/08/13 06:20:20;;;;;;;;;5.50;5.50;;;;;23.20;35.69;101120.75;5090920;27;49985;-70
2022/08/13 06:22:47;;;;;;;;;7.25;7.00;;;;;23.29;35.57;101123.19;5090882;27;49934;-73
2022/08/13 06:25:15;;;;;;;;;9.00;9.00;;;;;23.33;35.63;101119.50;5090613;27;50426;-70
2022/08/13 06:27:42;;;;;;;;;7.50;7.50;;;;;23.37;35.53;101121.19;5090874;27;49799;-69
2022/08/13 06:30:11;;;;;;;;;6.00;6.00;;;;;23.44;35.45;101121.88;5090535;27;49747;-70
2022/08/13 06:32:37;;;;;;;;;10.00;8.00;;;;;23.43;35.17;101122.81;5091034;27;49652;-69
2022/08/13 06:35:05;;;;;;;;;6.00;6.00;;;;;23.32;35.21;101112.38;5092980;27;51432;-69
2022/08/13 06:37:32;;;;;;;;;7.00;7.00;;;;;23.48;35.28;101126.25;5090568;27;49823;-70
2022/08/13 06:39:59;;;;;;;;;9.25;7.00;;;;;23.52;35.25;101127.06;5090463;27;49726;-70
2022/08/13 06:42:26;;;;;;;;;7.00;7.00;;;;;23.48;35.34;101120.03;5090565;27;49619;-69
2022/08/13 06:44:54;;;;;;;;;5.00;5.00;;;;;23.54;35.22;101118.03;5088517;27;52952;-68
2022/08/13 06:47:23;;;;;;;;;6.00;5.75;;;;;23.65;35.03;101120.50;5084207;27;49956;-70
2022/08/13 06:49:49;;;;;;;;;6.75;6.75;;;;;23.58;35.14;101114.38;5086865;27;49801;-72
2022/08/13 06:52:14;;;;;;;;;7.00;7.00;;;;;23.70;34.95;101127.47;5083845;27;49792;-73
2022/08/13 06:54:39;;;;;;;;;4.75;4.75;;;;;23.53;35.01;101092.16;5091359;27;49716;-74
2022/08/13 06:57:05;;;;;;;;;5.75;5.25;;;;;23.79;34.57;101117.41;5096437;27;49757;-72
2022/08/13 06:59:33;;;;;;;;;5.75;5.75;;;;;23.84;34.83;101115.50;5090927;27;49708;-75
2022/08/13 07:02:02;;;;;;;;;5.00;3.75;;;;;24.02;34.64;101122.09;5094037;27;50064;-69
2022/08/13 07:04:28;;;;;;;;;7.75;6.00;;;;;24.05;34.61;101122.03;5092832;27;50504;-69
2022/08/13 07:06:55;;;;;;;;;9.75;6.50;;;;;24.11;34.56;101135.25;5098812;27;49893;-71
2022/08/13 07:09:21;;;;;;;;;6.00;5.75;;;;;23.99;34.43;101109.69;5095732;27;49298;-72
2022/08/13 07:11:47;;;;;;;;;7.00;7.00;;;;;24.11;34.37;101128.06;5091449;27;49608;-70
2022/08/13 07:14:14;;;;;;;;;8.50;7.75;;;;;24.27;34.42;101131.19;5090622;27;49869;-70
2022/08/13 07:16:42;;;;;;;;;5.50;5.50;;;;;24.30;34.30;101132.91;5089931;27;50282;-69
2022/08/13 07:19:08;;;;;;;;;6.25;6.25;;;;;24.38;34.54;101134.47;5071709;27;49940;-70
2022/08/13 07:21:33;;;;;;;;;11.25;7.75;;;;;24.35;34.40;101118.47;5090482;27;49889;-78
2022/08/13 07:24:03;;;;;;;;;8.00;8.00;;;;;24.43;34.08;101132.53;5092107;27;50416;-68
2022/08/13 07:26:30;;;;;;;;;7.25;7.25;;;;;24.52;34.01;101126.88;5091068;27;49713;-69
2022/08/13 07:28:56;;;;;;;;;8.75;8.75;;;;;24.49;34.06;101109.97;5092326;27;49920;-78
2022/08/13 07:31:30;;;;;;;;;5.75;5.75;;;;;24.62;34.08;101137.34;5093629;27;49692;-68
2022/08/13 07:33:59;;;;;;;;;5.00;5.00;;;;;24.65;33.63;101131.88;5092623;27;49752;-71
2022/08/13 07:36:27;;;;;;;;;6.75;6.75;;;;;24.69;33.86;101131.69;5091348;27;49920;-71
2022/08/13 07:38:53;;;;;;;;;9.00;8.50;;;;;24.73;33.78;101128.00;5093419;27;49776;-66
2022/08/13 07:41:21;;;;;;;;;8.00;8.00;;;;;24.96;33.72;101147.88;5093571;27;49699;-67
2022/08/13 07:43:47;;;;;;;;;8.25;6.00;;;;;24.99;33.63;101142.38;5092945;27;49881;-68
2022/08/13 07:46:15;;;;;;;;;5.75;5.25;;;;;25.06;33.55;101143.97;5093331;27;49688;-72
2022/08/13 07:48:46;;;;;;;;;9.25;7.75;;;;;25.14;33.82;101141.03;5093068;27;49662;-71
2022/08/13 07:51:19;;;;;;;;;5.75;5.75;;;;;25.13;33.41;101136.59;5092980;27;49901;-69
2022/08/13 07:53:50;;;;;;;;;6.75;6.75;;;;;25.16;33.15;101134.69;5073942;27;50948;-70
2022/08/13 07:56:34;;;;;;;;;6.25;6.25;;;;;25.25;33.47;101136.19;5093124;27;49700;-70
2022/08/13 07:59:11;;;;;;;;;5.75;5.50;;;;;25.31;33.32;101138.66;5092922;27;50262;-73
2022/08/13 08:01:49;;;;;;;;;5.50;4.75;;;;;25.06;33.43;101091.13;5093109;27;49657;-72
2022/08/13 08:04:15;;;;;;;;;9.25;7.00;;;;;25.47;32.83;101139.88;5092827;27;51276;-73
2022/08/13 08:06:44;;;;;;;;;7.00;7.00;;;;;25.33;33.10;101107.25;5092938;27;49898;-69
2022/08/13 08:09:16;;;;;;;;;8.00;8.00;;;;;25.44;32.94;101123.00;5092641;27;49863;-68
2022/08/13 08:14:27;;;;;;;;;6.25;6.25;;;;;25.69;32.54;101140.91;5092307;27;49695;-69
2022/08/13 08:16:53;;;;;;;;;6.00;6.00;;;;;25.66;32.47;101130.22;5092850;27;49953;-71
2022/08/13 08:19:19;;;;;;;;;6.25;6.25;;;;;25.73;32.53;101140.81;5092674;27;49770;-70
2022/08/13 08:21:46;;;;;;;;;4.50;4.00;;;;;25.83;32.32;101137.72;5092817;27;49823;-69
2022/08/13 08:24:13;;;;;;;;;9.75;8.25;;;;;25.83;32.37;101120.72;5092414;27;50675;-68
2022/08/13 08:26:40;;;;;;;;;4.75;4.75;;;;;25.94;31.85;101140.91;5090027;27;49872;-75
2022/08/13 08:29:09;;;;;;;;;7.00;6.25;;;;;25.91;32.04;101129.38;5093111;27;49665;-77
2022/08/13 08:31:41;;;;;;;;;7.00;6.50;;;;;26.14;31.50;101148.22;5094283;27;49700;-75
2022/08/13 08:34:08;;;;;;;;;7.00;7.00;;;;;26.25;31.31;101148.72;5092770;27;50372;-72
2022/08/13 08:36:38;;;;;;;;;8.75;8.75;;;;;26.28;31.42;101146.84;5092676;27;50080;-72
2022/08/13 08:44:36;;;;;;;;;6.25;6.00;;;;;26.39;31.24;101142.81;5091800;27;50270;-74
2022/08/13 08:47:02;;;;;;;;;5.00;5.00;;;;;26.49;31.30;101146.91;5087072;27;49688;-72
2022/08/13 08:49:30;;;;;;;;;4.75;4.75;;;;;26.59;31.08;101149.25;5092096;27;49869;-74
2022/08/13 08:51:57;;;;;;;;;8.50;7.25;;;;;26.63;30.86;101145.47;5092247;27;49857;-74
2022/08/13 08:54:24;;;;;;;;;6.75;6.75;;;;;26.72;31.25;101148.69;5092214;27;50018;-74
2022/08/13 08:56:54;;;;;;;;;6.00;6.00;;;;;26.79;30.81;101147.50;5092102;27;49739;-74
2022/08/13 08:59:23;;;;;;;;;6.00;5.00;;;;;26.86;31.01;101148.16;5091927;27;49874;-72
2022/08/13 09:01:55;;;;;;;;;6.50;6.00;;;;;26.91;30.77;101147.94;5091950;27;50092;-75
2022/08/13 09:04:25;;;;;;;;;7.75;6.25;;;;;26.98;30.90;101147.63;5073395;27;52255;-73
2022/08/13 09:06:52;;;;;;;;;7.25;5.75;;;;;26.93;30.03;101135.31;5092761;27;50232;-81
2022/08/13 09:09:20;;;;;;;;;6.00;6.00;;;;;27.04;30.22;101139.34;5092798;27;49982;-78
2022/08/13 09:11:49;;;;;;;;;5.75;5.75;;;;;27.10;30.21;101135.50;5089912;27;49707;-77
2022/08/13 09:14:18;;;;;;;;;4.75;4.75;;;;;27.07;30.29;101117.66;5092642;27;50532;-77
2022/08/13 09:16:45;;;;;;;;;2.50;1.50;;;;;27.19;30.47;101136.94;5100122;27;49372;-79
2022/08/13 09:19:13;;;;;;;;;6.00;6.00;;;;;27.32;30.18;101130.97;5096683;27;49707;-74
2022/08/13 09:21:43;;;;;;;;;6.00;6.00;;;;;27.31;29.54;101118.44;5099178;27;49820;-74
2022/08/13 09:24:15;;;;;;;;;4.75;4.50;;;;;27.51;29.38;101136.44;5092756;27;49914;-73
2022/08/13 09:26:47;;;;;;;;;5.25;5.25;;;;;27.58;29.58;101131.66;5092080;27;50136;-75
2022/08/13 09:29:18;;;;;;;;;6.00;5.00;;;;;27.65;29.32;101125.94;5090735;27;49626;-77
2022/08/13 09:31:46;;;;;;;;;7.25;7.25;;;;;27.62;29.33;101126.06;5091445;27;49959;-73
2022/08/13 09:34:12;;;;;;;;;5.00;5.00;;;;;27.67;29.56;101125.88;5096419;27;51786;-80
2022/08/13 09:36:38;;;;;;;;;5.00;5.00;;;;;27.74;29.27;101131.88;5094492;27;49622;-68
2022/08/13 09:39:04;;;;;;;;;6.50;5.75;;;;;27.82;28.88;101133.31;5095935;27;49940;-68
2022/08/13 09:41:41;;;;;;;;;5.50;5.00;;;;;27.87;28.97;101131.25;5090660;27;49758;-68
2022/08/13 09:44:06;;;;;;;;;5.00;5.00;;;;;27.93;29.02;101132.81;5071019;27;50623;-68
2022/08/13 09:46:34;;;;;;;;;3.75;3.75;;;;;27.94;29.20;101124.63;5090572;27;49778;-68
2022/08/13 09:49:00;;;;;;;;;5.00;5.00;;;;;28.00;28.63;101131.59;5089509;27;49958;-68
2022/08/13 09:51:34;;;;;;;;;6.50;6.50;;;;;27.91;28.53;101108.59;5090918;27;49706;-68
2022/08/13 09:54:05;;;;;;;;;7.00;5.75;;;;;28.06;28.27;101130.41;5090748;27;51192;-67
2022/08/13 09:56:32;;;;;;;;;5.50;5.50;;;;;28.11;28.17;101120.28;5086227;27;49752;-69
2022/08/13 09:58:58;;;;;;;;;4.00;4.00;;;;;28.16;28.21;101124.50;5090783;27;49809;-69
2022/08/13 10:01:24;;;;;;;;;3.50;3.50;;;;;28.22;27.94;101115.28;5090882;27;50005;-70
2022/08/13 10:03:50;;;;;;;;;5.00;3.75;;;;;28.23;27.58;101107.09;5084234;27;50384;-69
2022/08/13 10:06:18;;;;;;;;;5.00;4.25;;;;;28.10;27.47;101075.38;5090397;27;49760;-68
2022/08/13 10:08:45;;;;;;;;;4.00;3.25;;;;;28.33;27.50;101095.91;5091026;27;49929;-70
2022/08/13 10:11:11;;;;;;;;;5.00;5.00;;;;;28.52;27.92;101108.44;5089395;27;49749;-73
2022/08/13 10:13:36;;;;;;;;;6.00;4.00;;;;;28.41;27.41;101089.19;5089809;27;50761;-76
2022/08/13 10:16:02;;;;;;;;;5.00;5.00;;;;;28.52;27.27;101100.34;5071711;27;49781;-73
2022/08/13 10:18:28;;;;;;;;;6.00;6.00;;;;;28.44;27.42;101075.53;5090913;27;50080;-72
2022/08/13 10:20:54;;;;;;;;;7.50;7.50;;;;;28.68;27.00;101118.50;5072502;27;50101;-71
2022/08/13 10:23:19;;;;;;;;;5.75;5.75;;;;;28.51;27.18;101085.09;5071122;27;51102;-72
2022/08/13 10:25:46;;;;;;;;;7.25;5.50;;;;;28.65;27.40;101086.22;5090641;27;49965;-72
2022/08/13 10:28:19;;;;;;;;;4.75;4.75;;;;;28.77;26.94;101093.75;5072233;27;49657;-72
2022/08/13 10:30:46;;;;;;;;;5.25;5.25;;;;;28.80;26.74;101090.88;5090579;27;49765;-71
2022/08/13 10:33:12;;;;;;;;;5.00;4.00;;;;;28.86;26.57;101095.13;5090443;27;49842;-70
2022/08/13 10:35:39;;;;;;;;;4.00;4.00;;;;;28.80;26.15;101075.53;5090202;27;49855;-71
2022/08/13 10:38:07;;;;;;;;;4.50;4.50;;;;;28.99;26.47;101098.97;5090534;27;49850;-74
2022/08/13 10:40:33;;;;;;;;;7.50;6.50;;;;;28.99;26.00;101077.34;5091289;27;49631;-76
2022/08/13 10:42:58;;;;;;;;;5.75;5.75;;;;;29.03;25.96;101073.53;5090563;27;49868;-76
2022/08/13 10:45:24;;;;;;;;;6.00;5.00;;;;;29.11;25.88;101092.06;5090422;27;49833;-73
2022/08/13 10:47:51;;;;;;;;;4.50;4.50;;;;;29.22;25.37;101097.78;5090465;27;49984;-74
2022/08/13 10:50:19;;;;;;;;;5.00;5.00;;;;;29.28;25.18;101075.84;5090896;27;49578;-67
2022/08/13 10:52:46;;;;;;;;;3.00;3.00;;;;;29.44;24.91;101084.94;5090570;27;50332;-70
2022/08/13 10:55:13;;;;;;;;;2.75;2.75;;;;;29.45;24.27;101089.38;5099021;27;49881;-67
2022/08/13 10:57:45;;;;;;;;;4.00;4.00;;;;;29.42;24.58;101061.59;5104563;27;49214;-69
2022/08/13 11:00:14;;;;;;;;;8.75;7.50;;;;;29.55;24.78;101074.44;5108605;27;49639;-67
2022/08/13 11:02:40;;;;;;;;;4.25;4.00;;;;;29.64;24.26;101062.25;5108686;27;50282;-67
2022/08/13 11:05:07;;;;;;;;;3.00;3.00;;;;;29.82;24.63;101071.19;5110425;27;49409;-66
2022/08/13 11:07:38;;;;;;;;;5.25;5.25;;;;;29.82;24.17;101079.28;5109246;27;49277;-71
2022/08/13 11:10:08;;;;;;;;;5.00;5.00;;;;;29.72;24.41;101059.09;5110014;27;49625;-73
2022/08/13 11:12:36;;;;;;;;;4.00;4.00;;;;;29.87;23.59;101078.09;5108857;27;49645;-67
2022/08/13 11:15:03;;;;;;;;;4.50;3.25;;;;;29.81;23.31;101051.38;5108614;27;49491;-69
2022/08/13 11:17:28;;;;;;;;;6.25;5.00;;;;;29.90;23.49;101050.84;5109768;27;49414;-71
2022/08/13 11:19:54;;;;;;;;;9.75;7.00;;;;;30.01;23.12;101079.16;5109800;27;49740;-67
2022/08/13 11:22:20;;;;;;;;;5.00;5.00;;;;;30.04;23.25;101069.06;5109201;27;49396;-70
2022/08/13 11:24:46;;;;;;;;;4.75;4.75;;;;;30.02;22.95;101048.47;5109426;27;49573;-68
2022/08/13 11:27:11;;;;;;;;;3.75;3.75;;;;;30.16;22.68;101073.81;5109263;27;49580;-71
2022/08/13 11:29:37;;;;;;;;;4.25;4.25;;;;;30.10;22.52;101038.94;5108983;27;49431;-74
2022/08/13 11:32:03;;;;;;;;;4.00;4.00;;;;;30.26;22.44;101071.47;5108872;27;50043;-71
2022/08/13 11:34:29;;;;;;;;;6.00;5.00;;;;;30.31;21.63;101065.81;5108924;27;49468;-69
2022/08/13 11:36:54;;;;;;;;;3.00;3.00;;;;;30.41;21.46;101072.44;5090035;27;54110;-73
2022/08/13 11:39:19;;;;;;;;;5.00;4.00;;;;;30.19;21.31;101019.47;5109309;27;49582;-68
2022/08/13 11:41:45;;;;;;;;;3.25;3.00;;;;;30.45;21.67;101063.16;5087750;27;50759;-73
2022/08/13 11:44:11;;;;;;;;;4.75;4.75;;;;;30.41;21.83;101054.38;5109730;27;49578;-70
2022/08/13 11:46:38;;;;;;;;;4.25;4.25;;;;;30.43;21.90;101051.56;5109309;27;49616;-71